sensor_id;sensor_type;location;lat;lon;timestamp;pressure;altitude;pressure_sealevel;temperature;humidity
50380;BME280;37474;59.468;18.040;2023-04-25T00:00:22;100172.81;;;2.80;100.00
50380;BME280;37474;59.468;18.040;2023-04-25T00:02:52;100167.63;;;2.82;100.00
50380;BME280;37474;59.468;18.040;2023-04-25T00:05:22;100156.66;;;2.78;100.00
50380;BME280;37474;59.468;18.040;2023-04-25T00:07:54;100156.47;;;2.84;100.00
50380;BME280;37474;59.468;18.040;2023-04-25T00:10:23;100143.09;;;2.75;100.00
50380;BME280;37474;59.468;18.040;2023-04-25T00:12:51;100143.22;;;2.70;100.00
50380;BME280;37474;59.468;18.040;2023-04-25T00:15:20;100136.84;;;2.85;100.00
50380;BME280;37474;59.468;18.040;2023-04-25T00:17:48;100139.47;;;2.82;100.00
50380;BME280;37474;59.468;18.040;2023-04-25T00:20:16;100136.06;;;2.81;100.00
50380;BME280;37474;59.468;18.040;2023-04-25T00:22:44;100063.97;;;2.37;100.00
50380;BME280;37474;59.468;18.040;2023-04-25T00:25:12;100147.28;;;2.77;100.00
50380;BME280;37474;59.468;18.040;2023-04-25T00:27:41;100143.09;;;2.75;100.00
50380;BME280;37474;59.468;18.040;2023-04-25T00:30:10;100141.00;;;2.87;100.00
50380;BME280;37474;59.468;18.040;2023-04-25T00:32:38;100143.69;;;2.83;100.00
50380;BME280;37474;59.468;18.040;2023-04-25T00:35:07;100140.31;;;2.82;100.00
50380;BME280;37474;59.468;18.040;2023-04-25T00:37:35;100138.09;;;2.70;100.00
50380;BME280;37474;59.468;18.040;2023-04-25T00:40:06;100136.50;;;2.66;100.00
50380;BME280;37474;59.468;18.040;2023-04-25T00:42:35;100127.44;;;2.56;100.00
50380;BME280;37474;59.468;18.040;2023-04-25T00:45:07;100127.28;;;2.60;100.00
50380;BME280;37474;59.468;18.040;2023-04-25T00:47:37;100121.63;;;2.49;100.00
50380;BME280;37474;59.468;18.040;2023-04-25T00:50:06;100129.31;;;2.49;100.00
50380;BME280;37474;59.468;18.040;2023-04-25T00:52:34;100120.59;;;2.56;100.00
50380;BME280;37474;59.468;18.040;2023-04-25T00:55:03;100120.06;;;2.45;100.00
50380;BME280;37474;59.468;18.040;2023-04-25T00:57:32;100120.13;;;2.42;100.00
50380;BME280;37474;59.468;18.040;2023-04-25T01:00:00;100124.63;;;2.34;100.00
50380;BME280;37474;59.468;18.040;2023-04-25T01:02:30;100127.56;;;2.20;100.00
50380;BME280;37474;59.468;18.040;2023-04-25T01:04:59;100136.72;;;2.27;100.00
50380;BME280;37474;59.468;18.040;2023-04-25T01:07:28;100136.00;;;2.24;100.00
50380;BME280;37474;59.468;18.040;2023-04-25T01:09:56;100104.38;;;1.95;100.00
50380;BME280;37474;59.468;18.040;2023-04-25T01:12:24;100120.16;;;2.11;100.00
50380;BME280;37474;59.468;18.040;2023-04-25T01:14:55;100123.31;;;2.19;100.00
50380;BME280;37474;59.468;18.040;2023-04-25T01:17:23;100131.94;;;2.17;100.00
50380;BME280;37474;59.468;18.040;2023-04-25T01:19:53;100116.16;;;1.99;100.00
50380;BME280;37474;59.468;18.040;2023-04-25T01:22:22;100116.06;;;2.04;100.00
50380;BME280;37474;59.468;18.040;2023-04-25T01:24:51;100088.09;;;1.98;100.00
50380;BME280;37474;59.468;18.040;2023-04-25T01:27:19;100075.53;;;1.90;100.00
50380;BME280;37474;59.468;18.040;2023-04-25T01:29:49;100067.59;;;1.99;100.00
50380;BME280;37474;59.468;18.040;2023-04-25T01:32:18;100072.84;;;1.95;100.00
50380;BME280;37474;59.468;18.040;2023-04-25T01:34:46;100078.16;;;1.87;100.00
50380;BME280;37474;59.468;18.040;2023-04-25T01:37:15;100077.97;;;1.93;100.00
50380;BME280;37474;59.468;18.040;2023-04-25T01:39:47;100074.41;;;2.00;100.00
50380;BME280;37474;59.468;18.040;2023-04-25T01:42:16;100057.81;;;1.82;100.00
50380;BME280;37474;59.468;18.040;2023-04-25T01:44:44;100051.09;;;1.80;100.00
50380;BME280;37474;59.468;18.040;2023-04-25T01:47:12;100041.53;;;1.87;100.00
50380;BME280;37474;59.468;18.040;2023-04-25T01:49:41;100042.81;;;1.70;100.00
50380;BME280;37474;59.468;18.040;2023-04-25T01:52:08;100038.25;;;1.81;100.00
50380;BME280;37474;59.468;18.040;2023-04-25T01:54:37;100038.38;;;1.77;100.00
50380;BME280;37474;59.468;18.040;2023-04-25T01:57:12;99977.22;;;1.38;100.00
50380;BME280;37474;59.468;18.040;2023-04-25T01:59:42;100032.97;;;1.89;100.00
50380;BME280;37474;59.468;18.040;2023-04-25T02:02:11;100041.53;;;1.87;100.00
50380;BME280;37474;59.468;18.040;2023-04-25T02:04:39;100035.38;;;1.94;100.00
50380;BME280;37474;59.468;18.040;2023-04-25T02:07:07;100030.31;;;1.92;100.00
50380;BME280;37474;59.468;18.040;2023-04-25T02:09:35;100036.53;;;1.82;100.00
50380;BME280;37474;59.468;18.040;2023-04-25T02:12:03;100034.97;;;1.78;100.00
50380;BME280;37474;59.468;18.040;2023-04-25T02:14:33;100034.97;;;1.78;100.00
50380;BME280;37474;59.468;18.040;2023-04-25T02:17:01;100038.53;;;1.71;100.00
50380;BME280;37474;59.468;18.040;2023-04-25T02:19:29;100051.09;;;1.80;100.00
50380;BME280;37474;59.468;18.040;2023-04-25T02:21:57;100046.69;;;1.85;100.00
50380;BME280;37474;59.468;18.040;2023-04-25T02:24:26;100026.53;;;1.74;100.00
50380;BME280;37474;59.468;18.040;2023-04-25T02:26:54;100029.03;;;1.76;100.00
50380;BME280;37474;59.468;18.040;2023-04-25T02:29:23;100019.03;;;1.68;100.00
50380;BME280;37474;59.468;18.040;2023-04-25T02:31:52;99962.72;;;1.40;100.00
50380;BME280;37474;59.468;18.040;2023-04-25T02:34:20;99997.69;;;1.69;100.00
50380;BME280;37474;59.468;18.040;2023-04-25T02:36:49;100004.41;;;1.73;100.00
50380;BME280;37474;59.468;18.040;2023-04-25T02:39:17;99998.31;;;1.79;100.00
50380;BME280;37474;59.468;18.040;2023-04-25T02:41:47;100000.03;;;1.78;100.00
50380;BME280;37474;59.468;18.040;2023-04-25T02:44:15;99994.94;;;1.77;100.00
50380;BME280;37474;59.468;18.040;2023-04-25T02:46:43;99981.66;;;1.64;100.00
50380;BME280;37474;59.468;18.040;2023-04-25T02:49:13;99988.16;;;1.76;100.00
50380;BME280;37474;59.468;18.040;2023-04-25T02:51:41;99978.56;;;1.84;100.00
50380;BME280;37474;59.468;18.040;2023-04-25T02:54:09;99980.41;;;1.79;100.00
50380;BME280;37474;59.468;18.040;2023-04-25T02:56:37;99972.22;;;1.66;100.00
50380;BME280;37474;59.468;18.040;2023-04-25T02:59:05;99962.34;;;1.85;100.00
50380;BME280;37474;59.468;18.040;2023-04-25T03:01:35;99962.25;;;1.88;100.00
50380;BME280;37474;59.468;18.040;2023-04-25T03:04:03;99956.06;;;1.66;100.00
50380;BME280;37474;59.468;18.040;2023-04-25T03:06:33;99948.81;;;1.81;100.00
50380;BME280;37474;59.468;18.040;2023-04-25T03:09:01;99947.91;;;1.82;100.00
50380;BME280;37474;59.468;18.040;2023-04-25T03:11:32;99954.44;;;1.93;100.00
50380;BME280;37474;59.468;18.040;2023-04-25T03:14:00;99924.19;;;1.79;100.00
50380;BME280;37474;59.468;18.040;2023-04-25T03:16:28;99945.91;;;1.94;100.00
50380;BME280;37474;59.468;18.040;2023-04-25T03:18:57;99941.06;;;1.84;100.00
50380;BME280;37474;59.468;18.040;2023-04-25T03:21:27;99925.84;;;1.80;100.00
50380;BME280;37474;59.468;18.040;2023-04-25T03:23:57;99925.09;;;1.76;100.00
50380;BME280;37474;59.468;18.040;2023-04-25T03:26:25;99919.56;;;1.92;100.00
50380;BME280;37474;59.468;18.040;2023-04-25T03:28:53;99921.34;;;1.88;100.00
50380;BME280;37474;59.468;18.040;2023-04-25T03:31:21;99919.19;;;1.74;100.00
50380;BME280;37474;59.468;18.040;2023-04-25T03:33:50;99912.19;;;1.81;100.00
50380;BME280;37474;59.468;18.040;2023-04-25T03:36:18;99915.69;;;1.78;100.00
50380;BME280;37474;59.468;18.040;2023-04-25T03:38:46;99903.88;;;1.74;100.00
50380;BME280;37474;59.468;18.040;2023-04-25T03:41:16;99904.47;;;1.82;100.00
50380;BME280;37474;59.468;18.040;2023-04-25T03:43:44;99911.97;;;1.89;100.00
50380;BME280;37474;59.468;18.040;2023-04-25T03:46:12;99913.66;;;1.90;100.00
50380;BME280;37474;59.468;18.040;2023-04-25T03:48:41;99905.09;;;1.91;100.00
50380;BME280;37474;59.468;18.040;2023-04-25T03:51:09;99904.44;;;1.84;100.00
50380;BME280;37474;59.468;18.040;2023-04-25T03:53:37;99915.38;;;1.89;100.00
50380;BME280;37474;59.468;18.040;2023-04-25T03:56:06;99897.63;;;1.84;100.00
50380;BME280;37474;59.468;18.040;2023-04-25T03:58:38;99900.91;;;1.88;100.00
50380;BME280;37474;59.468;18.040;2023-04-25T04:01:06;99900.81;;;1.91;100.00
50380;BME280;37474;59.468;18.040;2023-04-25T04:03:35;99906.00;;;1.90;100.00
50380;BME280;37474;59.468;18.040;2023-04-25T04:06:05;99908.19;;;2.02;100.00
50380;BME280;37474;59.468;18.040;2023-04-25T04:08:33;99897.25;;;1.97;100.00
50380;BME280;37474;59.468;18.040;2023-04-25T04:11:01;99886.13;;;1.98;100.00
50380;BME280;37474;59.468;18.040;2023-04-25T04:13:29;99884.16;;;2.07;100.00
50380;BME280;37474;59.468;18.040;2023-04-25T04:15:59;99880.84;;;2.04;100.00
50380;BME280;37474;59.468;18.040;2023-04-25T04:18:27;99872.25;;;2.06;100.00
50380;BME280;37474;59.468;18.040;2023-04-25T04:20:55;99861.97;;;2.08;100.00
50380;BME280;37474;59.468;18.040;2023-04-25T04:23:24;99859.41;;;2.08;100.00
50380;BME280;37474;59.468;18.040;2023-04-25T04:25:54;99858.44;;;2.12;100.00
50380;BME280;37474;59.468;18.040;2023-04-25T04:28:22;99866.91;;;2.14;100.00
50380;BME280;37474;59.468;18.040;2023-04-25T04:30:52;99860.19;;;2.10;100.00
50380;BME280;37474;59.468;18.040;2023-04-25T04:33:21;99867.00;;;2.11;100.00
50380;BME280;37474;59.468;18.040;2023-04-25T04:35:50;99859.38;;;2.09;100.00
50380;BME280;37474;59.468;18.040;2023-04-25T04:38:19;99863.25;;;2.21;100.00
50380;BME280;37474;59.468;18.040;2023-04-25T04:40:47;99863.75;;;2.32;100.00
50380;BME280;37474;59.468;18.040;2023-04-25T04:43:17;99866.09;;;2.40;100.00
50380;BME280;37474;59.468;18.040;2023-04-25T04:45:45;99863.75;;;2.32;100.00
50380;BME280;37474;59.468;18.040;2023-04-25T04:48:14;99875.25;;;2.47;100.00
50380;BME280;37474;59.468;18.040;2023-04-25T04:50:44;99881.59;;;2.35;100.00
50380;BME280;37474;59.468;18.040;2023-04-25T04:53:12;99887.47;;;2.37;100.00
50380;BME280;37474;59.468;18.040;2023-04-25T04:55:40;99890.53;;;2.22;100.00
50380;BME280;37474;59.468;18.040;2023-04-25T04:58:09;99888.88;;;2.20;100.00
50380;BME280;37474;59.468;18.040;2023-04-25T05:00:37;99886.59;;;2.38;100.00
50380;BME280;37474;59.468;18.040;2023-04-25T05:03:05;99900.28;;;2.37;100.00
50380;BME280;37474;59.468;18.040;2023-04-25T05:05:33;99876.19;;;2.45;100.00
50380;BME280;37474;59.468;18.040;2023-04-25T05:08:03;99878.38;;;2.55;100.00
50380;BME280;37474;59.468;18.040;2023-04-25T05:10:31;99877.31;;;2.62;100.00
50380;BME280;37474;59.468;18.040;2023-04-25T05:12:59;99871.59;;;2.54;100.00
50380;BME280;37474;59.468;18.040;2023-04-25T05:15:28;99868.25;;;2.52;100.00
50380;BME280;37474;59.468;18.040;2023-04-25T05:17:56;99871.84;;;2.47;100.00
50380;BME280;37474;59.468;18.040;2023-04-25T05:20:24;99867.22;;;2.58;100.00
50380;BME280;37474;59.468;18.040;2023-04-25T05:22:52;99856.56;;;2.45;100.00
50380;BME280;37474;59.468;18.040;2023-04-25T05:25:21;99854.72;;;2.49;100.00
50380;BME280;37474;59.468;18.040;2023-04-25T05:27:50;99852.16;;;2.49;100.00
50380;BME280;37474;59.468;18.040;2023-04-25T05:30:19;99849.38;;;2.56;100.00
50380;BME280;37474;59.468;18.040;2023-04-25T05:32:47;99844.53;;;2.47;100.00
50380;BME280;37474;59.468;18.040;2023-04-25T05:35:15;99852.34;;;2.43;100.00
50380;BME280;37474;59.468;18.040;2023-04-25T05:37:43;99848.34;;;2.60;100.00
50380;BME280;37474;59.468;18.040;2023-04-25T05:40:11;99844.88;;;2.63;100.00
50380;BME280;37474;59.468;18.040;2023-04-25T05:42:41;99843.84;;;2.69;100.00
50380;BME280;37474;59.468;18.040;2023-04-25T05:45:09;99839.34;;;2.75;100.00
50380;BME280;37474;59.468;18.040;2023-04-25T05:47:37;99836.38;;;2.62;100.00
50380;BME280;37474;59.468;18.040;2023-04-25T05:50:07;99836.09;;;2.70;100.00
50380;BME280;37474;59.468;18.040;2023-04-25T05:52:35;99837.25;;;2.86;100.00
50380;BME280;37474;59.468;18.040;2023-04-25T05:55:03;99828.81;;;2.84;100.00
50380;BME280;37474;59.468;18.040;2023-04-25T05:57:32;99832.00;;;2.91;100.00
50380;BME280;37474;59.468;18.040;2023-04-25T06:00:02;99810.16;;;2.81;100.00
50380;BME280;37474;59.468;18.040;2023-04-25T06:02:35;99830.19;;;2.93;100.00
50380;BME280;37474;59.468;18.040;2023-04-25T06:05:04;99830.19;;;2.95;100.00
50380;BME280;37474;59.468;18.040;2023-04-25T06:07:32;99824.94;;;2.98;100.00
50380;BME280;37474;59.468;18.040;2023-04-25T06:10:00;99827.13;;;3.08;100.00
50380;BME280;37474;59.468;18.040;2023-04-25T06:12:30;99817.31;;;2.96;100.00
50380;BME280;37474;59.468;18.040;2023-04-25T06:14:58;99825.22;;;3.13;100.00
50380;BME280;37474;59.468;18.040;2023-04-25T06:17:28;99821.75;;;3.39;100.00
50380;BME280;37474;59.468;18.040;2023-04-25T06:19:58;99826.88;;;3.39;100.00
50380;BME280;37474;59.468;18.040;2023-04-25T06:22:26;99827.13;;;3.55;100.00
50380;BME280;37474;59.468;18.040;2023-04-25T06:24:54;99833.88;;;3.58;100.00
50380;BME280;37474;59.468;18.040;2023-04-25T06:27:25;99828.06;;;3.53;100.00
50380;BME280;37474;59.468;18.040;2023-04-25T06:29:53;99831.16;;;3.39;100.00
50380;BME280;37474;59.468;18.040;2023-04-25T06:32:21;99825.75;;;3.23;100.00
50380;BME280;37474;59.468;18.040;2023-04-25T06:34:51;99797.16;;;3.10;100.00
50380;BME280;37474;59.468;18.040;2023-04-25T06:37:22;99829.53;;;3.36;100.00
50380;BME280;37474;59.468;18.040;2023-04-25T06:39:50;99830.50;;;3.34;100.00
50380;BME280;37474;59.468;18.040;2023-04-25T06:42:18;99831.09;;;3.40;100.00
50380;BME280;37474;59.468;18.040;2023-04-25T06:44:46;99837.81;;;3.43;100.00
50380;BME280;37474;59.468;18.040;2023-04-25T06:47:14;99826.03;;;3.39;100.00
50380;BME280;37474;59.468;18.040;2023-04-25T06:49:42;99830.91;;;3.22;100.00
50380;BME280;37474;59.468;18.040;2023-04-25T06:52:12;99828.63;;;3.37;100.00
50380;BME280;37474;59.468;18.040;2023-04-25T06:54:40;99824.41;;;3.36;100.00
50380;BME280;37474;59.468;18.040;2023-04-25T06:57:08;99822.34;;;3.46;100.00
50380;BME280;37474;59.468;18.040;2023-04-25T06:59:36;99813.91;;;3.66;100.00
50380;BME280;37474;59.468;18.040;2023-04-25T07:02:04;99813.63;;;3.74;100.00
50380;BME280;37474;59.468;18.040;2023-04-25T07:04:33;99805.50;;;3.62;100.00
50380;BME280;37474;59.468;18.040;2023-04-25T07:07:01;99819.94;;;3.87;100.00
50380;BME280;37474;59.468;18.040;2023-04-25T07:09:31;99829.25;;;3.67;100.00
50380;BME280;37474;59.468;18.040;2023-04-25T07:12:00;99827.63;;;3.65;100.00
50380;BME280;37474;59.468;18.040;2023-04-25T07:14:29;99833.91;;;3.80;100.00
50380;BME280;37474;59.468;18.040;2023-04-25T07:16:57;99836.72;;;3.95;100.00
50380;BME280;37474;59.468;18.040;2023-04-25T07:19:25;99837.50;;;3.97;100.00
50380;BME280;37474;59.468;18.040;2023-04-25T07:21:53;99835.91;;;3.95;100.00
50380;BME280;37474;59.468;18.040;2023-04-25T07:24:21;99828.47;;;4.09;100.00
50380;BME280;37474;59.468;18.040;2023-04-25T07:26:50;99829.06;;;3.94;100.00
50380;BME280;37474;59.468;18.040;2023-04-25T07:29:18;99829.88;;;3.96;100.00
50380;BME280;37474;59.468;18.040;2023-04-25T07:31:46;99833.78;;;4.05;100.00
50380;BME280;37474;59.468;18.040;2023-04-25T07:34:15;99838.56;;;4.14;100.00
50380;BME280;37474;59.468;18.040;2023-04-25T07:36:43;99841.03;;;4.17;100.00
50380;BME280;37474;59.468;18.040;2023-04-25T07:39:11;99838.38;;;4.40;100.00
50380;BME280;37474;59.468;18.040;2023-04-25T07:41:39;99844.22;;;4.64;100.00
50380;BME280;37474;59.468;18.040;2023-04-25T07:44:09;99840.00;;;4.63;100.00
50380;BME280;37474;59.468;18.040;2023-04-25T07:46:38;99851.69;;;4.70;100.00
50380;BME280;37474;59.468;18.040;2023-04-25T07:49:06;99843.91;;;4.52;100.00
50380;BME280;37474;59.468;18.040;2023-04-25T07:51:34;99807.69;;;4.17;100.00
50380;BME280;37474;59.468;18.040;2023-04-25T07:54:02;99850.44;;;4.59;100.00
50380;BME280;37474;59.468;18.040;2023-04-25T07:56:32;99857.22;;;4.61;100.00
50380;BME280;37474;59.468;18.040;2023-04-25T07:59:19;99855.53;;;5.01;100.00
50380;BME280;37474;59.468;18.040;2023-04-25T08:01:48;99850.31;;;4.82;100.00
50380;BME280;37474;59.468;18.040;2023-04-25T08:04:16;99850.06;;;4.88;100.00
50380;BME280;37474;59.468;18.040;2023-04-25T08:06:46;99852.34;;;4.96;100.00
50380;BME280;37474;59.468;18.040;2023-04-25T08:09:14;99858.16;;;5.20;100.00
50380;BME280;37474;59.468;18.040;2023-04-25T08:11:43;99858.94;;;5.22;100.00
50380;BME280;37474;59.468;18.040;2023-04-25T08:14:11;99856.88;;;5.10;100.00
50380;BME280;37474;59.468;18.040;2023-04-25T08:16:41;99864.47;;;5.13;100.00
50380;BME280;37474;59.468;18.040;2023-04-25T08:19:09;99856.84;;;5.30;100.00
50380;BME280;37474;59.468;18.040;2023-04-25T08:21:38;99857.84;;;5.46;100.00
50380;BME280;37474;59.468;18.040;2023-04-25T08:24:06;99852.97;;;5.40;100.00
50380;BME280;37474;59.468;18.040;2023-04-25T08:26:34;99861.06;;;5.70;100.00
50380;BME280;37474;59.468;18.040;2023-04-25T08:29:04;99856.63;;;5.74;100.00
50380;BME280;37474;59.468;18.040;2023-04-25T08:31:33;99852.00;;;6.18;100.00
50380;BME280;37474;59.468;18.040;2023-04-25T08:34:02;99869.34;;;5.96;100.00
50380;BME280;37474;59.468;18.040;2023-04-25T08:36:31;99859.38;;;5.88;100.00
50380;BME280;37474;59.468;18.040;2023-04-25T08:39:05;99861.47;;;5.80;100.00
50380;BME280;37474;59.468;18.040;2023-04-25T08:41:34;99863.50;;;6.11;100.00
50380;BME280;37474;59.468;18.040;2023-04-25T08:44:04;99877.75;;;5.99;100.00
50380;BME280;37474;59.468;18.040;2023-04-25T08:46:33;99877.53;;;5.85;100.00
50380;BME280;37474;59.468;18.040;2023-04-25T08:49:03;99880.16;;;5.65;100.00
50380;BME280;37474;59.468;18.040;2023-04-25T08:51:32;99884.75;;;5.58;100.00
50380;BME280;37474;59.468;18.040;2023-04-25T08:54:08;99880.44;;;5.59;100.00
50380;BME280;37474;59.468;18.040;2023-04-25T08:56:57;99880.09;;;5.66;100.00
50380;BME280;37474;59.468;18.040;2023-04-25T08:59:28;99882.63;;;5.68;100.00
50380;BME280;37474;59.468;18.040;2023-04-25T09:01:57;99897.22;;;5.86;100.00
50380;BME280;37474;59.468;18.040;2023-04-25T09:04:27;99882.88;;;5.80;100.00
50380;BME280;37474;59.468;18.040;2023-04-25T09:06:55;99892.06;;;6.05;100.00
50380;BME280;37474;59.468;18.040;2023-04-25T09:09:26;99887.38;;;5.96;100.00
50380;BME280;37474;59.468;18.040;2023-04-25T09:11:54;99882.81;;;5.63;100.00
50380;BME280;37474;59.468;18.040;2023-04-25T09:14:23;99831.19;;;5.10;100.00
50380;BME280;37474;59.468;18.040;2023-04-25T09:17:00;99888.97;;;5.59;100.00
50380;BME280;37474;59.468;18.040;2023-04-25T09:19:32;99892.19;;;6.21;100.00
50380;BME280;37474;59.468;18.040;2023-04-25T09:22:08;99898.28;;;6.37;100.00
50380;BME280;37474;59.468;18.040;2023-04-25T09:24:37;99898.13;;;6.94;100.00
50380;BME280;37474;59.468;18.040;2023-04-25T09:27:07;99894.09;;;7.23;100.00
50380;BME280;37474;59.468;18.040;2023-04-25T09:29:36;99892.28;;;7.25;100.00
50380;BME280;37474;59.468;18.040;2023-04-25T09:32:19;99903.94;;;6.45;100.00
50380;BME280;37474;59.468;18.040;2023-04-25T09:34:51;99910.22;;;6.21;100.00
50380;BME280;37474;59.468;18.040;2023-04-25T09:37:21;99859.44;;;6.24;100.00
50380;BME280;37474;59.468;18.040;2023-04-25T09:39:50;99902.75;;;7.04;100.00
50380;BME280;37474;59.468;18.040;2023-04-25T09:42:22;99911.38;;;7.03;100.00
50380;BME280;37474;59.468;18.040;2023-04-25T09:44:52;99903.97;;;6.97;100.00
50380;BME280;37474;59.468;18.040;2023-04-25T09:47:20;99879.53;;;7.04;100.00
50380;BME280;37474;59.468;18.040;2023-04-25T09:49:52;99903.31;;;7.44;100.00
50380;BME280;37474;59.468;18.040;2023-04-25T09:52:22;99903.22;;;7.79;100.00
50380;BME280;37474;59.468;18.040;2023-04-25T09:54:53;99909.59;;;7.72;100.00
50380;BME280;37474;59.468;18.040;2023-04-25T09:57:22;99914.81;;;7.54;100.00
50380;BME280;37474;59.468;18.040;2023-04-25T09:59:52;99909.53;;;7.40;100.00
50380;BME280;37474;59.468;18.040;2023-04-25T10:02:22;99912.22;;;7.54;100.00
50380;BME280;37474;59.468;18.040;2023-04-25T10:04:53;99909.41;;;7.59;100.00
50380;BME280;37474;59.468;18.040;2023-04-25T10:07:25;99918.56;;;7.64;100.00
50380;BME280;37474;59.468;18.040;2023-04-25T10:09:58;99917.63;;;7.83;100.00
50380;BME280;37474;59.468;18.040;2023-04-25T10:12:28;99928.13;;;8.27;100.00
50380;BME280;37474;59.468;18.040;2023-04-25T10:14:58;99925.03;;;8.20;100.00
50380;BME280;37474;59.468;18.040;2023-04-25T10:17:27;99925.22;;;8.49;99.56
50380;BME280;37474;59.468;18.040;2023-04-25T10:19:57;99929.19;;;8.70;96.29
50380;BME280;37474;59.468;18.040;2023-04-25T10:22:30;99930.72;;;8.59;100.00
50380;BME280;37474;59.468;18.040;2023-04-25T10:25:01;99938.03;;;8.35;96.75
50380;BME280;37474;59.468;18.040;2023-04-25T10:27:31;99926.38;;;8.28;99.42
50380;BME280;37474;59.468;18.040;2023-04-25T10:30:03;99928.38;;;8.54;97.69
50380;BME280;37474;59.468;18.040;2023-04-25T10:32:33;99934.69;;;8.33;100.00
50380;BME280;37474;59.468;18.040;2023-04-25T10:35:13;99938.56;;;8.57;100.00
50380;BME280;37474;59.468;18.040;2023-04-25T10:38:01;99940.94;;;9.06;98.10
50380;BME280;37474;59.468;18.040;2023-04-25T10:40:31;99943.03;;;8.69;96.47
50380;BME280;37474;59.468;18.040;2023-04-25T10:45:59;99948.53;;;8.63;96.58
50380;BME280;37474;59.468;18.040;2023-04-25T10:48:29;99949.78;;;8.72;100.00
50380;BME280;37474;59.468;18.040;2023-04-25T10:51:20;99952.25;;;8.89;97.47
50380;BME280;37474;59.468;18.040;2023-04-25T10:53:57;99955.50;;;8.77;96.39
50380;BME280;37474;59.468;18.040;2023-04-25T10:56:27;99947.69;;;8.79;95.54
50380;BME280;37474;59.468;18.040;2023-04-25T10:59:04;99952.16;;;8.91;98.08
50380;BME280;37474;59.468;18.040;2023-04-25T11:01:38;99928.19;;;8.73;96.08
50380;BME280;37474;59.468;18.040;2023-04-25T11:04:19;99948.28;;;8.98;94.21
50380;BME280;37474;59.468;18.040;2023-04-25T11:07:06;99948.84;;;8.89;94.75
50380;BME280;37474;59.468;18.040;2023-04-25T11:09:38;99955.31;;;8.50;97.17
50380;BME280;37474;59.468;18.040;2023-04-25T11:12:10;99957.31;;;8.61;99.86
50380;BME280;37474;59.468;18.040;2023-04-25T11:14:40;99953.03;;;8.28;97.74
50380;BME280;37474;59.468;18.040;2023-04-25T11:17:08;99962.03;;;8.68;97.22
50380;BME280;37474;59.468;18.040;2023-04-25T11:19:37;99961.88;;;9.02;95.31
50380;BME280;37474;59.468;18.040;2023-04-25T11:22:07;99962.84;;;8.85;96.57
50380;BME280;37474;59.468;18.040;2023-04-25T11:24:36;99936.78;;;8.26;100.00
50380;BME280;37474;59.468;18.040;2023-04-25T11:27:05;99961.22;;;8.68;96.07
50380;BME280;37474;59.468;18.040;2023-04-25T11:29:34;99962.09;;;8.83;97.53
50380;BME280;37474;59.468;18.040;2023-04-25T11:32:03;99961.91;;;8.86;98.98
50380;BME280;37474;59.468;18.040;2023-04-25T11:34:32;99966.38;;;8.98;96.56
50380;BME280;37474;59.468;18.040;2023-04-25T11:37:01;99968.47;;;9.07;94.00
50380;BME280;37474;59.468;18.040;2023-04-25T11:39:31;99970.09;;;8.94;94.29
50380;BME280;37474;59.468;18.040;2023-04-25T11:42:00;99965.00;;;9.37;92.33
50380;BME280;37474;59.468;18.040;2023-04-25T11:44:33;99963.38;;;9.50;92.79
50380;BME280;37474;59.468;18.040;2023-04-25T11:47:01;99973.03;;;9.32;91.88
50380;BME280;37474;59.468;18.040;2023-04-25T11:49:30;99965.91;;;8.91;96.31
50380;BME280;37474;59.468;18.040;2023-04-25T11:51:59;99974.00;;;8.85;96.41
50380;BME280;37474;59.468;18.040;2023-04-25T11:54:27;99951.53;;;9.02;95.97
50380;BME280;37474;59.468;18.040;2023-04-25T11:56:56;99973.28;;;9.13;95.78
50380;BME280;37474;59.468;18.040;2023-04-25T11:59:25;99941.72;;;8.62;97.53
50380;BME280;37474;59.468;18.040;2023-04-25T12:01:54;99977.41;;;8.40;98.20
50380;BME280;37474;59.468;18.040;2023-04-25T12:04:24;99976.00;;;8.33;99.76
50380;BME280;37474;59.468;18.040;2023-04-25T12:06:54;99969.44;;;8.11;100.00
50380;BME280;37474;59.468;18.040;2023-04-25T12:09:28;99976.25;;;7.97;100.00
50380;BME280;37474;59.468;18.040;2023-04-25T12:11:59;99979.09;;;7.75;100.00
50380;BME280;37474;59.468;18.040;2023-04-25T12:14:31;99971.88;;;7.81;100.00
50380;BME280;37474;59.468;18.040;2023-04-25T12:17:01;99920.78;;;7.55;100.00
50380;BME280;37474;59.468;18.040;2023-04-25T12:19:32;99975.69;;;8.07;100.00
50380;BME280;37474;59.468;18.040;2023-04-25T12:22:02;99968.19;;;8.18;100.00
50380;BME280;37474;59.468;18.040;2023-04-25T12:24:33;99963.56;;;8.41;100.00
50380;BME280;37474;59.468;18.040;2023-04-25T12:27:07;99970.72;;;8.36;100.00
50380;BME280;37474;59.468;18.040;2023-04-25T12:29:36;99966.19;;;8.24;100.00
50380;BME280;37474;59.468;18.040;2023-04-25T12:32:15;99968.59;;;8.27;100.00
50380;BME280;37474;59.468;18.040;2023-04-25T12:34:43;99971.16;;;8.44;100.00
50380;BME280;37474;59.468;18.040;2023-04-25T12:37:12;99941.13;;;8.73;100.00
50380;BME280;37474;59.468;18.040;2023-04-25T12:39:41;99975.47;;;9.05;98.80
50380;BME280;37474;59.468;18.040;2023-04-25T12:42:10;99975.19;;;8.80;97.81
50380;BME280;37474;59.468;18.040;2023-04-25T12:44:39;99970.13;;;8.62;100.00
50380;BME280;37474;59.468;18.040;2023-04-25T12:47:08;99969.06;;;8.51;99.50
50380;BME280;37474;59.468;18.040;2023-04-25T12:49:36;99976.97;;;8.48;100.00
50380;BME280;37474;59.468;18.040;2023-04-25T12:52:05;99968.38;;;8.79;100.00
50380;BME280;37474;59.468;18.040;2023-04-25T12:54:33;99969.56;;;9.03;99.99
50380;BME280;37474;59.468;18.040;2023-04-25T12:57:02;99965.31;;;9.02;98.30
50380;BME280;37474;59.468;18.040;2023-04-25T12:59:31;99965.19;;;8.89;100.00
50380;BME280;37474;59.468;18.040;2023-04-25T13:01:59;99962.84;;;8.85;99.13
50380;BME280;37474;59.468;18.040;2023-04-25T13:04:28;99946.78;;;8.64;100.00